sensor_id;sensor_type;location;lat;lon;timestamp;temperature;humidity
14000;DHT22;7075;53.574;10.054;2023-08-08T00:00:09;14.30;99.90
14000;DHT22;7075;53.574;10.054;2023-08-08T00:02:35;14.30;99.90
14000;DHT22;7075;53.574;10.054;2023-08-08T00:05:01;14.30;99.90
14000;DHT22;7075;53.574;10.054;2023-08-08T00:07:27;14.20;99.90
14000;DHT22;7075;53.574;10.054;2023-08-08T00:09:56;14.20;99.90
14000;DHT22;7075;53.574;10.054;2023-08-08T00:12:22;14.20;99.90
14000;DHT22;7075;53.574;10.054;2023-08-08T00:14:48;14.10;99.90
14000;DHT22;7075;53.574;10.054;2023-08-08T00:17:14;14.10;99.90
14000;DHT22;7075;53.574;10.054;2023-08-08T00:19:40;14.00;99.90
14000;DHT22;7075;53.574;10.054;2023-08-08T00:22:05;14.00;99.90
14000;DHT22;7075;53.574;10.054;2023-08-08T00:24:31;14.00;99.90
14000;DHT22;7075;53.574;10.054;2023-08-08T00:26:57;14.00;99.90
14000;DHT22;7075;53.574;10.054;2023-08-08T00:29:23;13.90;99.90
14000;DHT22;7075;53.574;10.054;2023-08-08T00:31:49;14.00;99.90
14000;DHT22;7075;53.574;10.054;2023-08-08T00:34:14;13.90;99.90
14000;DHT22;7075;53.574;10.054;2023-08-08T00:36:40;13.90;99.90
14000;DHT22;7075;53.574;10.054;2023-08-08T00:39:06;13.90;99.90
14000;DHT22;7075;53.574;10.054;2023-08-08T00:41:33;13.90;99.90
14000;DHT22;7075;53.574;10.054;2023-08-08T00:43:58;13.80;99.90
14000;DHT22;7075;53.574;10.054;2023-08-08T00:46:24;13.90;99.90
14000;DHT22;7075;53.574;10.054;2023-08-08T00:48:51;13.90;99.90
14000;DHT22;7075;53.574;10.054;2023-08-08T00:51:17;13.90;99.90
14000;DHT22;7075;53.574;10.054;2023-08-08T00:53:44;13.90;99.90
14000;DHT22;7075;53.574;10.054;2023-08-08T00:56:12;13.90;99.90
14000;DHT22;7075;53.574;10.054;2023-08-08T00:58:39;13.80;99.90
14000;DHT22;7075;53.574;10.054;2023-08-08T01:01:05;13.80;99.90
14000;DHT22;7075;53.574;10.054;2023-08-08T01:03:30;13.80;99.90
14000;DHT22;7075;53.574;10.054;2023-08-08T01:06:19;13.80;99.90
14000;DHT22;7075;53.574;10.054;2023-08-08T01:08:54;13.80;99.90
14000;DHT22;7075;53.574;10.054;2023-08-08T01:11:21;13.80;99.90
14000;DHT22;7075;53.574;10.054;2023-08-08T01:13:47;13.80;99.90
14000;DHT22;7075;53.574;10.054;2023-08-08T01:16:13;13.70;99.90
14000;DHT22;7075;53.574;10.054;2023-08-08T01:18:41;13.60;99.90
14000;DHT22;7075;53.574;10.054;2023-08-08T01:21:08;13.60;99.90
14000;DHT22;7075;53.574;10.054;2023-08-08T01:23:56;13.60;99.90
14000;DHT22;7075;53.574;10.054;2023-08-08T01:26:26;13.60;99.90
14000;DHT22;7075;53.574;10.054;2023-08-08T01:28:53;13.60;99.90
14000;DHT22;7075;53.574;10.054;2023-08-08T01:31:19;13.60;99.90
14000;DHT22;7075;53.574;10.054;2023-08-08T01:33:45;13.60;99.90
14000;DHT22;7075;53.574;10.054;2023-08-08T01:36:20;13.60;99.90
14000;DHT22;7075;53.574;10.054;2023-08-08T01:38:49;13.60;99.90
14000;DHT22;7075;53.574;10.054;2023-08-08T01:41:17;13.60;99.90
14000;DHT22;7075;53.574;10.054;2023-08-08T01:43:44;13.60;99.90
14000;DHT22;7075;53.574;10.054;2023-08-08T01:46:10;13.60;99.90
14000;DHT22;7075;53.574;10.054;2023-08-08T01:48:36;13.60;99.90
14000;DHT22;7075;53.574;10.054;2023-08-08T01:51:02;13.60;99.90
14000;DHT22;7075;53.574;10.054;2023-08-08T01:53:28;13.70;99.90
14000;DHT22;7075;53.574;10.054;2023-08-08T01:55:53;13.70;99.90
14000;DHT22;7075;53.574;10.054;2023-08-08T01:58:19;13.70;99.90
14000;DHT22;7075;53.574;10.054;2023-08-08T02:00:44;13.80;99.90
14000;DHT22;7075;53.574;10.054;2023-08-08T02:03:12;13.70;99.90
14000;DHT22;7075;53.574;10.054;2023-08-08T02:05:37;13.80;99.90
14000;DHT22;7075;53.574;10.054;2023-08-08T02:08:10;13.70;99.90
14000;DHT22;7075;53.574;10.054;2023-08-08T02:10:35;13.70;99.90
14000;DHT22;7075;53.574;10.054;2023-08-08T02:13:01;13.80;99.90
14000;DHT22;7075;53.574;10.054;2023-08-08T02:15:26;13.80;99.90
14000;DHT22;7075;53.574;10.054;2023-08-08T02:17:52;13.80;99.90
14000;DHT22;7075;53.574;10.054;2023-08-08T02:20:18;13.80;99.90
14000;DHT22;7075;53.574;10.054;2023-08-08T02:22:43;13.80;99.90
14000;DHT22;7075;53.574;10.054;2023-08-08T02:25:09;13.80;99.90
14000;DHT22;7075;53.574;10.054;2023-08-08T02:27:35;13.80;99.90
14000;DHT22;7075;53.574;10.054;2023-08-08T02:30:01;13.70;99.90
14000;DHT22;7075;53.574;10.054;2023-08-08T02:32:26;13.70;99.90
14000;DHT22;7075;53.574;10.054;2023-08-08T02:34:52;13.70;99.90
14000;DHT22;7075;53.574;10.054;2023-08-08T02:37:17;13.70;99.90
14000;DHT22;7075;53.574;10.054;2023-08-08T02:39:44;13.80;99.90
14000;DHT22;7075;53.574;10.054;2023-08-08T02:42:09;13.70;99.90
14000;DHT22;7075;53.574;10.054;2023-08-08T02:44:35;13.80;99.90
14000;DHT22;7075;53.574;10.054;2023-08-08T02:47:01;13.80;99.90
14000;DHT22;7075;53.574;10.054;2023-08-08T02:49:26;13.80;99.90
14000;DHT22;7075;53.574;10.054;2023-08-08T02:51:52;13.80;99.90
14000;DHT22;7075;53.574;10.054;2023-08-08T02:54:17;13.80;99.90
14000;DHT22;7075;53.574;10.054;2023-08-08T02:56:43;13.80;99.90
14000;DHT22;7075;53.574;10.054;2023-08-08T02:59:09;13.80;99.90
14000;DHT22;7075;53.574;10.054;2023-08-08T03:01:34;13.80;99.90
14000;DHT22;7075;53.574;10.054;2023-08-08T03:04:05;13.80;99.90
14000;DHT22;7075;53.574;10.054;2023-08-08T03:06:31;13.80;99.90
14000;DHT22;7075;53.574;10.054;2023-08-08T03:08:56;13.80;99.90
14000;DHT22;7075;53.574;10.054;2023-08-08T03:11:22;13.80;99.90
14000;DHT22;7075;53.574;10.054;2023-08-08T03:13:48;13.80;99.90
14000;DHT22;7075;53.574;10.054;2023-08-08T03:16:13;13.80;99.90
14000;DHT22;7075;53.574;10.054;2023-08-08T03:18:44;13.80;99.90
14000;DHT22;7075;53.574;10.054;2023-08-08T03:21:09;13.80;99.90
14000;DHT22;7075;53.574;10.054;2023-08-08T03:23:35;13.80;99.90
14000;DHT22;7075;53.574;10.054;2023-08-08T03:26:00;13.70;99.90
14000;DHT22;7075;53.574;10.054;2023-08-08T03:28:26;13.80;99.90
14000;DHT22;7075;53.574;10.054;2023-08-08T03:30:52;13.80;99.90
14000;DHT22;7075;53.574;10.054;2023-08-08T03:33:17;13.80;99.90
14000;DHT22;7075;53.574;10.054;2023-08-08T03:35:49;13.80;99.90
14000;DHT22;7075;53.574;10.054;2023-08-08T03:38:30;13.80;99.90
14000;DHT22;7075;53.574;10.054;2023-08-08T03:40:55;13.70;99.90
14000;DHT22;7075;53.574;10.054;2023-08-08T03:43:21;13.70;99.90
14000;DHT22;7075;53.574;10.054;2023-08-08T03:45:46;13.70;99.90
14000;DHT22;7075;53.574;10.054;2023-08-08T03:48:12;13.70;99.90
14000;DHT22;7075;53.574;10.054;2023-08-08T03:50:38;13.70;99.90
14000;DHT22;7075;53.574;10.054;2023-08-08T03:53:03;13.60;99.90
14000;DHT22;7075;53.574;10.054;2023-08-08T03:55:31;13.60;99.90
14000;DHT22;7075;53.574;10.054;2023-08-08T03:57:57;13.60;99.90
14000;DHT22;7075;53.574;10.054;2023-08-08T04:00:22;13.60;99.90
14000;DHT22;7075;53.574;10.054;2023-08-08T04:02:48;13.60;99.90
14000;DHT22;7075;53.574;10.054;2023-08-08T04:05:13;13.60;99.90
14000;DHT22;7075;53.574;10.054;2023-08-08T04:07:39;13.70;99.90
14000;DHT22;7075;53.574;10.054;2023-08-08T04:10:05;13.70;99.90
14000;DHT22;7075;53.574;10.054;2023-08-08T04:12:30;13.70;99.90
14000;DHT22;7075;53.574;10.054;2023-08-08T04:14:58;13.70;99.90
14000;DHT22;7075;53.574;10.054;2023-08-08T04:17:23;13.70;99.90
14000;DHT22;7075;53.574;10.054;2023-08-08T04:19:49;13.70;99.90
14000;DHT22;7075;53.574;10.054;2023-08-08T04:22:16;13.70;99.90
14000;DHT22;7075;53.574;10.054;2023-08-08T04:24:42;13.70;99.90
14000;DHT22;7075;53.574;10.054;2023-08-08T04:27:08;13.70;99.90
14000;DHT22;7075;53.574;10.054;2023-08-08T04:29:34;13.70;99.90
14000;DHT22;7075;53.574;10.054;2023-08-08T04:31:59;13.70;99.90
14000;DHT22;7075;53.574;10.054;2023-08-08T04:34:25;13.80;99.90
14000;DHT22;7075;53.574;10.054;2023-08-08T04:36:50;13.70;99.90
14000;DHT22;7075;53.574;10.054;2023-08-08T04:39:16;13.70;99.90
14000;DHT22;7075;53.574;10.054;2023-08-08T04:41:41;13.80;99.90
14000;DHT22;7075;53.574;10.054;2023-08-08T04:44:07;13.80;99.90
14000;DHT22;7075;53.574;10.054;2023-08-08T04:46:32;13.70;99.90
14000;DHT22;7075;53.574;10.054;2023-08-08T04:49:04;13.80;99.90
14000;DHT22;7075;53.574;10.054;2023-08-08T04:51:30;13.80;99.90
14000;DHT22;7075;53.574;10.054;2023-08-08T04:53:55;13.80;99.90
14000;DHT22;7075;53.574;10.054;2023-08-08T04:56:21;13.80;99.90
14000;DHT22;7075;53.574;10.054;2023-08-08T04:58:47;13.80;99.90
14000;DHT22;7075;53.574;10.054;2023-08-08T05:01:12;13.70;99.90
14000;DHT22;7075;53.574;10.054;2023-08-08T05:03:40;13.70;99.90
14000;DHT22;7075;53.574;10.054;2023-08-08T05:06:06;13.80;99.90
14000;DHT22;7075;53.574;10.054;2023-08-08T05:08:31;13.80;99.90
14000;DHT22;7075;53.574;10.054;2023-08-08T05:10:57;13.80;99.90
14000;DHT22;7075;53.574;10.054;2023-08-08T05:13:23;13.80;99.90
14000;DHT22;7075;53.574;10.054;2023-08-08T05:15:48;13.80;99.90
14000;DHT22;7075;53.574;10.054;2023-08-08T05:18:14;13.80;99.90
14000;DHT22;7075;53.574;10.054;2023-08-08T05:20:40;13.90;99.90
14000;DHT22;7075;53.574;10.054;2023-08-08T05:23:05;13.90;99.90
14000;DHT22;7075;53.574;10.054;2023-08-08T05:25:31;14.00;99.90
14000;DHT22;7075;53.574;10.054;2023-08-08T05:27:56;14.00;99.90
14000;DHT22;7075;53.574;10.054;2023-08-08T05:30:22;14.00;99.90
14000;DHT22;7075;53.574;10.054;2023-08-08T05:32:48;14.10;99.90
14000;DHT22;7075;53.574;10.054;2023-08-08T05:35:13;14.10;99.90
14000;DHT22;7075;53.574;10.054;2023-08-08T05:37:39;14.20;99.90
14000;DHT22;7075;53.574;10.054;2023-08-08T05:40:05;14.20;99.90
14000;DHT22;7075;53.574;10.054;2023-08-08T05:42:32;14.30;99.90
14000;DHT22;7075;53.574;10.054;2023-08-08T05:44:57;14.40;99.90
14000;DHT22;7075;53.574;10.054;2023-08-08T05:47:23;14.30;99.90
14000;DHT22;7075;53.574;10.054;2023-08-08T05:49:49;14.40;99.90
14000;DHT22;7075;53.574;10.054;2023-08-08T05:52:14;14.50;99.90
14000;DHT22;7075;53.574;10.054;2023-08-08T05:54:40;14.60;99.90
14000;DHT22;7075;53.574;10.054;2023-08-08T05:57:28;14.60;99.90
14000;DHT22;7075;53.574;10.054;2023-08-08T05:59:53;14.60;99.90
14000;DHT22;7075;53.574;10.054;2023-08-08T06:02:19;14.60;99.90
14000;DHT22;7075;53.574;10.054;2023-08-08T06:04:45;14.60;99.90
14000;DHT22;7075;53.574;10.054;2023-08-08T06:07:10;14.60;99.90
14000;DHT22;7075;53.574;10.054;2023-08-08T06:09:36;14.60;99.90
14000;DHT22;7075;53.574;10.054;2023-08-08T06:12:03;14.60;99.90
14000;DHT22;7075;53.574;10.054;2023-08-08T06:14:29;14.60;99.90
14000;DHT22;7075;53.574;10.054;2023-08-08T06:16:55;14.60;99.90
14000;DHT22;7075;53.574;10.054;2023-08-08T06:19:21;14.70;99.90
14000;DHT22;7075;53.574;10.054;2023-08-08T06:21:47;14.60;99.90
14000;DHT22;7075;53.574;10.054;2023-08-08T06:24:13;14.60;99.90
14000;DHT22;7075;53.574;10.054;2023-08-08T06:26:39;14.60;99.90
14000;DHT22;7075;53.574;10.054;2023-08-08T06:29:04;14.60;99.90
14000;DHT22;7075;53.574;10.054;2023-08-08T06:31:30;14.60;99.90
14000;DHT22;7075;53.574;10.054;2023-08-08T06:33:55;14.60;99.90
14000;DHT22;7075;53.574;10.054;2023-08-08T06:36:23;14.60;99.90
14000;DHT22;7075;53.574;10.054;2023-08-08T06:38:48;14.70;99.90
14000;DHT22;7075;53.574;10.054;2023-08-08T06:41:14;14.80;99.90
14000;DHT22;7075;53.574;10.054;2023-08-08T06:43:40;14.80;99.90
14000;DHT22;7075;53.574;10.054;2023-08-08T06:46:06;14.90;99.90
14000;DHT22;7075;53.574;10.054;2023-08-08T06:48:31;14.90;99.90
14000;DHT22;7075;53.574;10.054;2023-08-08T06:50:57;15.00;99.90
14000;DHT22;7075;53.574;10.054;2023-08-08T06:53:23;14.90;99.90
14000;DHT22;7075;53.574;10.054;2023-08-08T06:55:49;14.90;99.90
14000;DHT22;7075;53.574;10.054;2023-08-08T06:58:14;14.90;99.90
14000;DHT22;7075;53.574;10.054;2023-08-08T07:00:40;15.00;99.90
14000;DHT22;7075;53.574;10.054;2023-08-08T07:03:06;15.10;99.90
14000;DHT22;7075;53.574;10.054;2023-08-08T07:05:32;15.20;99.90
14000;DHT22;7075;53.574;10.054;2023-08-08T07:07:57;15.30;99.90
14000;DHT22;7075;53.574;10.054;2023-08-08T07:10:23;15.30;99.90
14000;DHT22;7075;53.574;10.054;2023-08-08T07:12:49;15.30;99.90
14000;DHT22;7075;53.574;10.054;2023-08-08T07:15:14;15.30;99.90
14000;DHT22;7075;53.574;10.054;2023-08-08T07:17:40;15.30;99.90
14000;DHT22;7075;53.574;10.054;2023-08-08T07:20:06;15.30;99.90
14000;DHT22;7075;53.574;10.054;2023-08-08T07:22:33;15.40;99.90
14000;DHT22;7075;53.574;10.054;2023-08-08T07:24:59;15.40;99.90
14000;DHT22;7075;53.574;10.054;2023-08-08T07:27:26;15.40;99.90
14000;DHT22;7075;53.574;10.054;2023-08-08T07:29:52;15.50;99.90
14000;DHT22;7075;53.574;10.054;2023-08-08T07:32:17;15.50;99.90
14000;DHT22;7075;53.574;10.054;2023-08-08T07:34:43;15.50;99.90
14000;DHT22;7075;53.574;10.054;2023-08-08T07:37:09;15.70;99.90
14000;DHT22;7075;53.574;10.054;2023-08-08T07:39:35;15.70;99.90
14000;DHT22;7075;53.574;10.054;2023-08-08T07:42:00;15.70;99.90
14000;DHT22;7075;53.574;10.054;2023-08-08T07:44:26;15.70;99.90
14000;DHT22;7075;53.574;10.054;2023-08-08T07:46:52;15.80;99.90
14000;DHT22;7075;53.574;10.054;2023-08-08T07:49:18;15.80;99.90
14000;DHT22;7075;53.574;10.054;2023-08-08T07:51:43;15.90;99.90
14000;DHT22;7075;53.574;10.054;2023-08-08T07:54:09;16.00;99.90
14000;DHT22;7075;53.574;10.054;2023-08-08T07:56:36;16.20;99.90
14000;DHT22;7075;53.574;10.054;2023-08-08T07:59:02;16.20;99.90
14000;DHT22;7075;53.574;10.054;2023-08-08T08:01:28;16.20;99.90
14000;DHT22;7075;53.574;10.054;2023-08-08T08:03:54;16.20;99.90
14000;DHT22;7075;53.574;10.054;2023-08-08T08:06:19;16.10;99.90
14000;DHT22;7075;53.574;10.054;2023-08-08T08:08:45;16.20;99.90
